Terminal Aerodrome Forecast
Issued by NWS

Home | Current Version | Previous Version | Text Only | Print | Product List | Glossary On
Versions: 1 2 3 4 5 6 7 8 9 10 11 12 13 14
000
FTUS43 KICT 261124
TAFRSL
TAF
KRSL 261124Z 2612/2712 35010KT P6SM SKC
     FM262100 04008KT P6SM SCT040
     FM270200 08007KT P6SM SCT250
     FM270700 11009KT P6SM VCTS SCT035CB BKN110
     FM271000 10007KT P6SM BKN030=

USA.gov is the U.S. government's official web portal to all federal, state and local government web resources and services.